Time;durP1;ratioP1;P1;durP2;ratioP2;P2;SDS_P1;SDS_P2;PMS_P1;PMS_P2;Temp;Humidity;BMP_temperature;BMP_pressure;BME280_temperature;BME280_humidity;BME280_pressure;Samples;Min_cycle;Max_cycle;Signal;HPM_P1;HPM_P2
2024/04/16 00:00:12;;;;;;;3.10;2.28;;;8.60;99.90;;;;;;5435776;26;20456;-69
2024/04/16 00:02:41;;;;;;;5.55;2.80;;;8.50;99.90;;;;;;5431257;26;19998;-69
2024/04/16 00:05:06;;;;;;;5.65;2.60;;;8.60;99.90;;;;;;5433913;26;20010;-69
2024/04/16 00:07:32;;;;;;;6.30;2.35;;;8.50;99.90;;;;;;5429013;26;20017;-69
2024/04/16 00:09:58;;;;;;;5.30;2.83;;;8.50;99.90;;;;;;5434290;26;20010;-69
2024/04/16 00:12:23;;;;;;;8.73;3.15;;;8.50;99.90;;;;;;5433653;26;20002;-69
2024/04/16 00:15:08;;;;;;;4.40;2.75;;;8.60;99.90;;;;;;5428579;26;20006;-70
2024/04/16 00:17:34;;;;;;;5.28;3.00;;;8.70;99.90;;;;;;5428049;26;19999;-70
2024/04/16 00:20:00;;;;;;;4.57;3.20;;;8.80;99.90;;;;;;5430327;26;20109;-69
2024/04/16 00:22:26;;;;;;;4.15;2.90;;;8.90;99.90;;;;;;5432522;26;19995;-70
2024/04/16 00:24:52;;;;;;;3.63;2.80;;;8.80;99.90;;;;;;5433567;26;20027;-70
2024/04/16 00:27:17;;;;;;;5.28;3.15;;;8.60;99.90;;;;;;5436659;26;20075;-70
2024/04/16 00:29:44;;;;;;;4.80;3.40;;;8.50;99.90;;;;;;5431938;26;19995;-70
2024/04/16 00:32:11;;;;;;;5.85;2.95;;;8.50;99.90;;;;;;5434445;26;20857;-70
2024/04/16 00:34:37;;;;;;;3.92;2.67;;;8.40;99.90;;;;;;5433349;26;20031;-70
2024/04/16 00:37:03;;;;;;;4.53;2.90;;;8.50;99.90;;;;;;5430124;26;20022;-70
2024/04/16 00:39:28;;;;;;;4.28;2.63;;;8.60;99.90;;;;;;5435130;26;19999;-69
2024/04/16 00:41:55;;;;;;;5.25;2.67;;;8.60;99.90;;;;;;5433954;26;20006;-69
2024/04/16 00:44:22;;;;;;;5.63;2.63;;;8.60;99.90;;;;;;5432365;26;20050;-69
2024/04/16 00:46:48;;;;;;;4.47;3.00;;;8.70;99.90;;;;;;5436002;26;20010;-71
2024/04/16 00:49:13;;;;;;;6.45;2.92;;;8.70;99.90;;;;;;5433107;26;19999;-69
2024/04/16 00:51:39;;;;;;;8.90;2.85;;;8.80;99.90;;;;;;5433707;26;20010;-70
2024/04/16 00:54:06;;;;;;;6.93;2.90;;;8.70;99.90;;;;;;5432781;26;20850;-70
2024/04/16 00:56:35;;;;;;;4.00;2.40;;;8.70;99.90;;;;;;5435854;26;20013;-70
2024/04/16 00:59:02;;;;;;;3.45;2.67;;;8.70;99.90;;;;;;5431567;26;20482;-69
2024/04/16 01:01:28;;;;;;;6.10;2.78;;;8.60;99.90;;;;;;5433487;26;19999;-70
2024/04/16 01:03:54;;;;;;;6.82;2.50;;;8.60;99.90;;;;;;5432609;26;20865;-69
2024/04/16 01:06:19;;;;;;;3.92;2.53;;;8.60;99.90;;;;;;5439072;26;19995;-70
2024/04/16 01:08:45;;;;;;;6.18;2.80;;;8.60;99.90;;;;;;5436254;26;20003;-69
2024/04/16 01:11:27;;;;;;;3.97;2.58;;;8.60;99.90;;;;;;5436863;26;20470;-65
2024/04/16 01:13:56;;;;;;;3.58;2.42;;;8.50;99.90;;;;;;5436613;26;20014;-66
2024/04/16 01:16:23;;;;;;;7.80;2.13;;;8.40;99.90;;;;;;5439868;26;20010;-66
2024/04/16 01:18:48;;;;;;;4.32;2.33;;;8.30;99.90;;;;;;5439944;26;20470;-65
2024/04/16 01:21:14;;;;;;;5.00;2.50;;;8.20;99.90;;;;;;5435361;26;20015;-65
2024/04/16 01:23:40;;;;;;;5.25;2.17;;;8.00;99.90;;;;;;5434756;26;20017;-65
2024/04/16 01:26:06;;;;;;;6.30;2.53;;;7.90;99.90;;;;;;5436899;26;20003;-65
2024/04/16 01:28:33;;;;;;;4.78;2.40;;;8.00;99.90;;;;;;5437936;26;20109;-65
2024/04/16 01:30:58;;;;;;;8.00;2.53;;;7.80;99.90;;;;;;5436623;26;20009;-65
2024/04/16 01:33:24;;;;;;;4.55;2.03;;;7.70;99.90;;;;;;5430781;26;19999;-65
2024/04/16 01:35:50;;;;;;;7.28;2.25;;;7.60;99.90;;;;;;5438449;26;20042;-65
2024/04/16 01:38:16;;;;;;;4.07;2.58;;;7.60;99.90;;;;;;5435512;26;20003;-65
2024/04/16 01:40:42;;;;;;;5.38;2.25;;;7.50;99.90;;;;;;5439319;26;20002;-65
2024/04/16 01:43:07;;;;;;;4.32;1.90;;;7.40;99.90;;;;;;5432578;26;20003;-66
2024/04/16 01:45:34;;;;;;;5.68;2.70;;;7.40;99.90;;;;;;5437483;26;20006;-66
2024/04/16 01:48:00;;;;;;;4.53;2.13;;;7.40;99.90;;;;;;5427521;26;19999;-66
2024/04/16 01:50:25;;;;;;;5.13;2.65;;;7.30;99.90;;;;;;5439087;26;20007;-66
2024/04/16 01:52:51;;;;;;;3.50;2.33;;;7.30;99.90;;;;;;5433780;26;20920;-66
2024/04/16 01:55:17;;;;;;;5.80;3.20;;;7.30;99.90;;;;;;5437647;26;20021;-65
2024/04/16 01:57:43;;;;;;;4.80;2.90;;;7.20;99.90;;;;;;5434647;26;20038;-66
2024/04/16 02:00:09;;;;;;;5.80;2.42;;;7.10;99.90;;;;;;5438442;26;20311;-65
2024/04/16 02:02:38;;;;;;;4.95;2.40;;;7.10;99.90;;;;;;5436174;26;20031;-65
2024/04/16 02:05:04;;;;;;;3.72;1.90;;;7.20;99.90;;;;;;5435273;26;20010;-66
2024/04/16 02:07:33;;;;;;;3.47;2.20;;;7.10;99.90;;;;;;5436384;26;20568;-66
2024/04/16 02:09:58;;;;;;;3.92;2.40;;;7.00;99.90;;;;;;5436092;26;19999;-65
2024/04/16 02:12:24;;;;;;;4.07;2.30;;;7.00;99.90;;;;;;5435381;26;20033;-66
2024/04/16 02:14:50;;;;;;;8.02;2.67;;;6.90;99.90;;;;;;5434897;26;20003;-66
2024/04/16 02:17:16;;;;;;;3.65;2.13;;;6.80;99.90;;;;;;5447238;26;20013;-65
2024/04/16 02:19:43;;;;;;;3.22;2.30;;;6.80;99.90;;;;;;5438206;26;20018;-66
2024/04/16 02:22:08;;;;;;;7.45;2.45;;;6.90;99.90;;;;;;5438247;26;19999;-66
2024/04/16 02:24:34;;;;;;;4.53;2.30;;;6.90;99.90;;;;;;5437756;26;20109;-66
2024/04/16 02:27:00;;;;;;;7.65;2.58;;;7.00;99.90;;;;;;5438483;26;20648;-65
2024/04/16 02:29:27;;;;;;;7.10;2.40;;;7.00;99.90;;;;;;5437136;26;20021;-65
2024/04/16 02:31:53;;;;;;;5.30;2.30;;;7.00;99.90;;;;;;5434512;26;20031;-70
2024/04/16 02:34:19;;;;;;;6.38;2.10;;;6.90;99.90;;;;;;5437614;26;20470;-70
2024/04/16 02:36:45;;;;;;;3.33;2.17;;;6.80;99.90;;;;;;5438377;26;20017;-70
2024/04/16 02:39:10;;;;;;;3.45;2.03;;;6.90;99.90;;;;;;5432663;26;20089;-69
2024/04/16 02:41:36;;;;;;;6.53;2.40;;;6.90;99.90;;;;;;5438286;26;20080;-70
2024/04/16 02:44:02;;;;;;;5.43;2.20;;;6.90;99.90;;;;;;5436046;26;20007;-70
2024/04/16 02:46:28;;;;;;;2.88;2.20;;;6.80;99.90;;;;;;5437112;26;20003;-70
2024/04/16 02:48:54;;;;;;;3.83;2.00;;;6.70;99.90;;;;;;5436212;26;20463;-69
2024/04/16 02:51:21;;;;;;;3.63;1.98;;;6.70;99.90;;;;;;5438294;26;20031;-70
2024/04/16 02:53:47;;;;;;;8.25;2.17;;;6.80;99.90;;;;;;5435405;26;21421;-70
2024/04/16 02:56:13;;;;;;;5.25;2.58;;;6.90;99.90;;;;;;5437596;26;20007;-69
2024/04/16 02:58:39;;;;;;;3.28;1.90;;;7.00;99.90;;;;;;5435495;26;19998;-69
2024/04/16 03:01:06;;;;;;;4.65;2.25;;;7.00;99.90;;;;;;5437376;26;20003;-69
2024/04/16 03:03:36;;;;;;;3.75;1.77;;;6.90;99.90;;;;;;5433946;26;20371;-69
2024/04/16 03:06:03;;;;;;;2.30;1.85;;;6.80;99.90;;;;;;5434842;26;20919;-69
2024/04/16 03:08:29;;;;;;;4.60;1.95;;;6.90;99.90;;;;;;5435224;26;20331;-69
2024/04/16 03:10:58;;;;;;;4.80;1.73;;;6.90;99.90;;;;;;5434993;26;20934;-69
2024/04/16 03:13:24;;;;;;;2.38;1.77;;;7.00;99.90;;;;;;5430624;26;20010;-70
2024/04/16 03:15:50;;;;;;;1.90;1.55;;;7.00;99.90;;;;;;5438237;26;20501;-70
2024/04/16 03:18:17;;;;;;;4.47;2.35;;;7.10;99.90;;;;;;5435679;26;20011;-69
2024/04/16 03:20:43;;;;;;;4.85;1.70;;;7.10;99.90;;;;;;5435356;26;19999;-70
2024/04/16 03:23:08;;;;;;;5.53;1.98;;;7.30;99.90;;;;;;5433524;26;20009;-70
2024/04/16 03:25:41;;;;;;;4.65;1.75;;;7.40;99.90;;;;;;5436615;26;20014;-69
2024/04/16 03:28:07;;;;;;;3.40;1.70;;;7.50;99.90;;;;;;5433458;26;20516;-69
2024/04/16 03:30:32;;;;;;;4.03;1.73;;;7.40;99.90;;;;;;5436672;26;20084;-70
2024/04/16 03:32:58;;;;;;;3.17;1.70;;;7.40;99.90;;;;;;5432697;26;19998;-69
2024/04/16 03:35:24;;;;;;;4.32;1.58;;;7.50;99.90;;;;;;5438189;26;20002;-68
2024/04/16 03:37:50;;;;;;;4.57;2.03;;;7.30;99.90;;;;;;5434394;26;20006;-68
2024/04/16 03:40:16;;;;;;;2.72;1.75;;;7.10;99.90;;;;;;5436281;26;20547;-69
2024/04/16 03:42:41;;;;;;;3.50;1.65;;;7.00;99.90;;;;;;5434218;26;20474;-70
2024/04/16 03:45:07;;;;;;;6.95;2.22;;;6.90;99.90;;;;;;5436480;26;20007;-70
2024/04/16 03:47:33;;;;;;;2.78;1.77;;;6.80;99.90;;;;;;5436056;26;20018;-70
2024/04/16 03:49:59;;;;;;;3.72;2.15;;;6.80;99.90;;;;;;5434964;26;20003;-70
2024/04/16 03:52:25;;;;;;;4.68;2.15;;;6.70;99.90;;;;;;5434254;26;20006;-70
2024/04/16 03:54:51;;;;;;;4.90;1.75;;;6.80;99.90;;;;;;5434072;26;20080;-70
2024/04/16 03:57:17;;;;;;;1.38;1.25;;;6.90;99.90;;;;;;5434820;26;19999;-70
2024/04/16 04:02:27;;;;;;;2.88;1.80;;;7.20;99.90;;;;;;5435149;26;20042;-70
2024/04/16 04:04:52;;;;;;;2.55;1.77;;;7.20;99.90;;;;;;5432265;26;19991;-70
2024/04/16 04:07:18;;;;;;;2.97;2.00;;;7.10;99.90;;;;;;5433062;26;20036;-70
2024/04/16 04:09:44;;;;;;;4.20;1.58;;;7.10;99.90;;;;;;5433185;26;19995;-70
2024/04/16 04:12:10;;;;;;;3.78;1.60;;;7.10;99.90;;;;;;5436797;26;20039;-70
2024/04/16 04:14:36;;;;;;;5.28;1.55;;;7.00;99.90;;;;;;5433559;26;20338;-70
2024/04/16 04:17:02;;;;;;;2.95;1.90;;;7.10;99.90;;;;;;5435132;26;20003;-70
2024/04/16 04:19:28;;;;;;;3.28;1.70;;;7.10;99.90;;;;;;5435373;26;20689;-70
2024/04/16 04:21:53;;;;;;;2.53;1.50;;;7.10;99.90;;;;;;5433834;26;19994;-70
2024/04/16 04:24:19;;;;;;;5.40;1.83;;;7.10;99.90;;;;;;5429809;26;20068;-70
2024/04/16 04:26:46;;;;;;;2.20;1.48;;;7.20;99.90;;;;;;5433174;26;19999;-70
2024/04/16 04:29:11;;;;;;;3.20;1.90;;;7.20;99.90;;;;;;5435264;26;20171;-70
2024/04/16 04:31:37;;;;;;;2.65;1.80;;;7.30;99.90;;;;;;5434022;26;19998;-66
2024/04/16 04:34:03;;;;;;;2.67;2.08;;;7.30;99.90;;;;;;5432956;26;20608;-66
2024/04/16 04:36:29;;;;;;;3.17;2.17;;;7.30;99.90;;;;;;5436646;26;19994;-66
2024/04/16 04:38:55;;;;;;;7.13;2.00;;;7.50;99.90;;;;;;5434906;26;20014;-66
2024/04/16 04:41:21;;;;;;;3.38;2.25;;;7.50;99.90;;;;;;5439249;26;20026;-66
2024/04/16 04:43:50;;;;;;;6.13;2.05;;;7.40;99.90;;;;;;5435708;26;19999;-66
2024/04/16 04:46:16;;;;;;;3.30;2.50;;;7.50;99.90;;;;;;5437049;26;20002;-66
2024/04/16 04:48:42;;;;;;;7.55;3.65;;;7.60;99.90;;;;;;5434020;26;20070;-66
2024/04/16 04:51:09;;;;;;;52.35;24.35;;;7.70;99.90;;;;;;5437730;26;20502;-66
2024/04/16 04:53:35;;;;;;;28.17;15.60;;;7.60;99.90;;;;;;5437861;26;20336;-66
2024/04/16 04:56:02;;;;;;;57.78;42.92;;;7.60;99.90;;;;;;5435735;26;20002;-66
2024/04/16 04:58:28;;;;;;;13.52;9.85;;;7.70;99.90;;;;;;5435346;26;20006;-66
2024/04/16 05:00:53;;;;;;;11.20;6.10;;;7.40;99.90;;;;;;5436919;26;20027;-66
2024/04/16 05:03:19;;;;;;;5.93;3.22;;;7.40;99.90;;;;;;5435930;26;20350;-66
2024/04/16 05:05:45;;;;;;;13.82;6.20;;;7.50;99.90;;;;;;5436818;26;20011;-66
2024/04/16 05:08:12;;;;;;;9.88;5.13;;;7.60;99.90;;;;;;5437515;26;19999;-66
2024/04/16 05:10:38;;;;;;;10.23;5.88;;;7.70;99.90;;;;;;5435990;26;20010;-66
2024/04/16 05:13:04;;;;;;;8.15;4.20;;;7.70;99.90;;;;;;5437229;26;20002;-66
2024/04/16 05:15:30;;;;;;;11.27;5.53;;;7.60;99.90;;;;;;5438200;26;20014;-66
2024/04/16 05:17:56;;;;;;;23.33;9.98;;;7.60;99.90;;;;;;5437999;26;19999;-66
2024/04/16 05:20:22;;;;;;;5.57;3.35;;;7.50;99.90;;;;;;5437604;26;20002;-66
2024/04/16 05:22:49;;;;;;;17.17;7.85;;;7.50;99.90;;;;;;5439161;26;19999;-66
2024/04/16 05:25:15;;;;;;;23.75;9.60;;;7.50;99.90;;;;;;5437434;26;20442;-66
2024/04/16 05:27:41;;;;;;;18.35;6.15;;;7.70;99.90;;;;;;5439871;26;20003;-66
2024/04/16 05:30:08;;;;;;;10.52;4.55;;;7.70;99.90;;;;;;5437670;26;20462;-66
2024/04/16 05:32:34;;;;;;;18.98;6.75;;;7.50;99.90;;;;;;5439245;26;19999;-66
2024/04/16 05:35:00;;;;;;;31.08;9.32;;;7.30;99.90;;;;;;5437453;26;20459;-69
2024/04/16 05:37:25;;;;;;;23.77;9.43;;;7.30;99.90;;;;;;5439889;26;19998;-70
2024/04/16 05:39:51;;;;;;;34.85;11.00;;;7.40;99.90;;;;;;5435427;26;20013;-70
2024/04/16 05:42:17;;;;;;;26.48;9.30;;;7.40;99.90;;;;;;5438341;26;20463;-70
2024/04/16 05:44:43;;;;;;;26.80;10.45;;;7.40;99.90;;;;;;5437809;26;20010;-71
2024/04/16 05:47:08;;;;;;;17.48;7.45;;;7.60;99.90;;;;;;5440105;26;19999;-70
2024/04/16 05:49:34;;;;;;;15.90;7.70;;;7.60;99.90;;;;;;5434656;26;19999;-70
2024/04/16 05:52:00;;;;;;;12.00;5.00;;;7.50;99.90;;;;;;5434609;26;20014;-70
2024/04/16 05:54:27;;;;;;;5.82;3.40;;;7.50;99.90;;;;;;5436118;26;20010;-70
2024/04/16 05:56:53;;;;;;;21.88;8.68;;;7.60;99.90;;;;;;5438047;26;19994;-70
2024/04/16 05:59:19;;;;;;;9.35;4.22;;;7.60;99.90;;;;;;5438204;26;20003;-66
2024/04/16 06:01:45;;;;;;;2.30;2.10;;;7.60;99.90;;;;;;5438179;26;20588;-66
2024/04/16 06:04:11;;;;;;;4.38;3.22;;;7.40;99.90;;;;;;5436305;26;20071;-66
2024/04/16 06:06:37;;;;;;;4.20;2.88;;;7.40;99.90;;;;;;5435962;26;20455;-66
2024/04/16 06:09:04;;;;;;;9.68;3.40;;;7.30;99.90;;;;;;5435603;26;20003;-65
2024/04/16 06:11:31;;;;;;;4.70;3.50;;;7.40;99.90;;;;;;5437366;26;19995;-65
2024/04/16 06:13:57;;;;;;;3.97;2.78;;;7.50;99.90;;;;;;5435573;26;20465;-67
2024/04/16 06:16:23;;;;;;;6.82;3.42;;;7.40;99.90;;;;;;5437815;26;20084;-65
2024/04/16 06:18:51;;;;;;;9.05;4.35;;;7.50;99.90;;;;;;5435272;26;19999;-65
2024/04/16 06:21:17;;;;;;;8.07;3.15;;;7.70;99.90;;;;;;5433372;26;20011;-65
2024/04/16 06:23:42;;;;;;;7.97;3.53;;;7.70;99.90;;;;;;5437265;26;20392;-69
2024/04/16 06:26:09;;;;;;;4.45;3.20;;;7.70;99.90;;;;;;5436581;26;20431;-69
2024/04/16 06:28:36;;;;;;;4.03;2.72;;;7.70;99.90;;;;;;5439102;26;20079;-70
2024/04/16 06:31:02;;;;;;;5.85;2.80;;;7.80;99.90;;;;;;5434403;26;20532;-70
2024/04/16 06:33:33;;;;;;;7.82;3.70;;;7.80;99.90;;;;;;5436629;26;19999;-69
2024/04/16 06:35:59;;;;;;;8.38;2.90;;;7.80;99.90;;;;;;5437255;26;20089;-69
2024/04/16 06:38:25;;;;;;;8.02;2.95;;;7.70;99.90;;;;;;5436564;26;19995;-69
2024/04/16 06:40:54;;;;;;;5.40;2.78;;;7.90;99.90;;;;;;5436539;26;20671;-69
2024/04/16 06:43:19;;;;;;;8.52;3.13;;;7.90;99.90;;;;;;5435797;26;20002;-69
2024/04/16 06:45:45;;;;;;;4.95;2.80;;;7.80;99.90;;;;;;5434543;26;20380;-69
2024/04/16 06:48:11;;;;;;;6.65;2.97;;;7.80;99.90;;;;;;5436671;26;19999;-70
2024/04/16 06:50:37;;;;;;;5.80;2.92;;;7.90;99.90;;;;;;5435410;26;20018;-69
2024/04/16 06:53:02;;;;;;;6.80;2.83;;;8.00;99.90;;;;;;5435695;26;20007;-70
2024/04/16 06:55:30;;;;;;;7.10;3.28;;;8.00;99.90;;;;;;5435710;26;20367;-69
2024/04/16 06:57:57;;;;;;;7.18;3.00;;;8.00;99.90;;;;;;5433909;26;20014;-70
2024/04/16 07:00:23;;;;;;;3.45;2.63;;;8.00;99.90;;;;;;5436040;26;20008;-69
2024/04/16 07:02:49;;;;;;;4.80;3.03;;;8.00;99.90;;;;;;5434931;26;19995;-69
2024/04/16 07:05:15;;;;;;;4.97;2.78;;;8.00;99.90;;;;;;5435846;26;20026;-69
2024/04/16 07:07:41;;;;;;;4.10;2.85;;;8.00;99.90;;;;;;5437549;26;20828;-69
2024/04/16 07:10:07;;;;;;;5.13;2.08;;;8.30;99.90;;;;;;5436571;26;20557;-69
2024/04/16 07:12:32;;;;;;;7.95;3.55;;;8.30;99.90;;;;;;5434957;26;20075;-69
2024/04/16 07:14:58;;;;;;;7.25;2.90;;;8.20;99.90;;;;;;5431447;26;20016;-66
2024/04/16 07:17:24;;;;;;;4.53;2.17;;;8.30;99.90;;;;;;5437069;26;20014;-65
2024/04/16 07:19:50;;;;;;;4.07;2.25;;;8.50;99.90;;;;;;5436321;26;20009;-65
2024/04/16 07:22:15;;;;;;;7.15;2.45;;;8.60;99.90;;;;;;5436104;26;20014;-65
2024/04/16 07:24:42;;;;;;;6.75;2.20;;;8.80;99.90;;;;;;5436267;26;20007;-65
2024/04/16 07:27:08;;;;;;;8.13;2.58;;;9.00;99.90;;;;;;5437775;26;20011;-67
2024/04/16 07:29:34;;;;;;;8.98;2.53;;;9.00;99.90;;;;;;5429823;26;20010;-65
2024/04/16 07:32:00;;;;;;;5.68;2.40;;;9.00;99.90;;;;;;5436165;26;20002;-65
2024/04/16 07:34:26;;;;;;;5.70;2.10;;;9.00;99.90;;;;;;5436264;26;20570;-65
2024/04/16 07:36:51;;;;;;;8.85;2.30;;;9.10;99.90;;;;;;5438056;26;20077;-65
2024/04/16 07:39:17;;;;;;;5.05;2.00;;;9.10;99.90;;;;;;5436122;26;20012;-65
2024/04/16 07:41:45;;;;;;;4.78;2.10;;;9.00;99.90;;;;;;5434586;26;20017;-65
2024/04/16 07:44:10;;;;;;;4.15;1.95;;;9.10;99.90;;;;;;5434735;26;20006;-65
2024/04/16 07:46:36;;;;;;;18.67;7.30;;;9.10;99.90;;;;;;5435979;26;19995;-66
2024/04/16 07:49:02;;;;;;;78.22;34.65;;;9.10;99.90;;;;;;5435218;26;20010;-65
2024/04/16 07:51:28;;;;;;;32.92;14.27;;;9.10;99.90;;;;;;5434879;26;20018;-65
2024/04/16 07:53:53;;;;;;;35.67;20.05;;;9.20;99.90;;;;;;5433375;26;19995;-65
2024/04/16 07:56:19;;;;;;;17.50;9.65;;;9.40;99.90;;;;;;5435851;26;20014;-66
2024/04/16 07:58:45;;;;;;;16.88;8.52;;;9.50;99.90;;;;;;5436861;26;19999;-66
2024/04/16 08:01:12;;;;;;;32.00;13.70;;;9.70;99.90;;;;;;5432794;26;20014;-66
2024/04/16 08:03:38;;;;;;;26.90;11.57;;;9.80;99.90;;;;;;5435422;26;20006;-66
2024/04/16 08:06:04;;;;;;;31.23;19.33;;;10.00;99.90;;;;;;5432035;26;20901;-66
2024/04/16 08:08:29;;;;;;;13.63;6.60;;;10.10;99.90;;;;;;5434891;26;19999;-66
2024/04/16 08:10:55;;;;;;;8.48;4.32;;;10.00;99.90;;;;;;5433253;26;20003;-66
2024/04/16 08:13:22;;;;;;;15.38;5.55;;;10.00;99.90;;;;;;5439891;26;20003;-66
2024/04/16 08:15:48;;;;;;;15.23;6.68;;;10.00;99.90;;;;;;5438801;26;20333;-67
2024/04/16 08:18:14;;;;;;;22.70;11.05;;;9.90;99.90;;;;;;5441837;26;20071;-66
2024/04/16 08:20:39;;;;;;;14.63;5.05;;;9.80;99.90;;;;;;5443288;26;20007;-66
2024/04/16 08:23:05;;;;;;;20.55;9.75;;;9.80;99.90;;;;;;5443548;26;20014;-66
2024/04/16 08:25:31;;;;;;;12.60;5.45;;;10.00;99.90;;;;;;5442700;26;20380;-66
2024/04/16 08:27:57;;;;;;;18.88;6.80;;;10.00;99.90;;;;;;5443519;26;20621;-65
2024/04/16 08:30:22;;;;;;;13.48;4.45;;;10.10;99.90;;;;;;5440388;26;20096;-65
2024/04/16 08:32:48;;;;;;;22.17;6.90;;;10.10;99.90;;;;;;5441886;26;20455;-66
2024/04/16 08:35:28;;;;;;;27.83;10.07;;;10.20;99.90;;;;;;5441456;26;20011;-64
2024/04/16 08:37:54;;;;;;;17.63;7.82;;;10.50;99.90;;;;;;5440279;26;20556;-66
2024/04/16 08:40:21;;;;;;;9.77;3.38;;;10.70;99.90;;;;;;5438375;26;20010;-65
2024/04/16 08:42:52;;;;;;;7.60;2.85;;;10.80;99.90;;;;;;5426103;26;20447;-65
2024/04/16 08:45:20;;;;;;;16.65;6.90;;;10.80;99.90;;;;;;5440494;26;19999;-65
2024/04/16 08:47:47;;;;;;;10.63;5.38;;;10.90;99.90;;;;;;5441360;26;20395;-69
2024/04/16 08:50:14;;;;;;;11.63;3.10;;;10.90;99.90;;;;;;5441629;26;20006;-69
2024/04/16 08:52:41;;;;;;;11.25;2.92;;;10.80;99.90;;;;;;5439481;26;20005;-69
2024/04/16 08:55:07;;;;;;;7.03;2.40;;;10.60;99.90;;;;;;5428971;26;19995;-69
2024/04/16 08:57:35;;;;;;;3.90;2.03;;;10.60;99.90;;;;;;5442240;26;20019;-69
2024/04/16 09:00:01;;;;;;;4.30;1.73;;;10.50;99.90;;;;;;5440024;26;20992;-70
2024/04/16 09:02:27;;;;;;;4.45;1.80;;;10.80;99.90;;;;;;5440484;26;20009;-69
2024/04/16 09:04:58;;;;;;;9.40;2.20;;;11.00;99.90;;;;;;5439175;26;20013;-71
2024/04/16 09:07:24;;;;;;;7.15;1.85;;;11.10;99.90;;;;;;5439823;26;19998;-69
2024/04/16 09:09:50;;;;;;;5.38;1.92;;;11.40;99.90;;;;;;5441150;26;20006;-69
2024/04/16 09:12:16;;;;;;;5.38;1.60;;;11.40;99.90;;;;;;5441993;26;20341;-69
2024/04/16 09:14:41;;;;;;;6.60;1.55;;;11.30;99.90;;;;;;5443314;26;20010;-68
2024/04/16 09:17:13;;;;;;;5.57;1.40;;;11.40;98.40;;;;;;5439101;26;20052;-69
2024/04/16 09:19:43;;;;;;;5.70;1.40;;;11.60;99.20;;;;;;5437105;26;20010;-69
2024/04/16 09:22:09;;;;;;;11.63;1.65;;;11.60;98.50;;;;;;5442210;26;20030;-69
2024/04/16 09:24:35;;;;;;;4.22;1.20;;;11.30;97.90;;;;;;5436563;26;19998;-70
2024/04/16 09:27:07;;;;;;;5.97;1.25;;;10.70;99.50;;;;;;5433571;26;20351;-70
2024/04/16 09:29:32;;;;;;;9.55;1.75;;;10.50;99.90;;;;;;5433476;26;19999;-70
2024/04/16 09:32:03;;;;;;;6.38;1.58;;;10.50;99.90;;;;;;5434835;26;20488;-70
2024/04/16 09:34:29;;;;;;;6.78;1.30;;;10.80;99.90;;;;;;5433920;26;21913;-74
2024/04/16 09:36:55;;;;;;;6.53;1.30;;;11.10;99.90;;;;;;5432671;26;20018;-69
2024/04/16 09:39:23;;;;;;;6.15;1.70;;;11.20;99.00;;;;;;5433916;26;19998;-68
2024/04/16 09:41:50;;;;;;;3.75;1.20;;;11.40;99.90;;;;;;5433662;26;20003;-69
2024/04/16 09:44:16;;;;;;;5.35;1.23;;;11.60;99.30;;;;;;5437054;26;20003;-68
2024/04/16 09:46:47;;;;;;;3.13;1.35;;;11.50;98.30;;;;;;5437838;26;20430;-69
2024/04/16 09:49:13;;;;;;;2.97;0.90;;;11.40;97.00;;;;;;5432315;26;20060;-70
2024/04/16 09:51:40;;;;;;;5.40;1.30;;;11.10;97.00;;;;;;5433489;26;20022;-70
2024/04/16 09:54:11;;;;;;;3.35;1.05;;;10.80;97.00;;;;;;5436815;26;19999;-70
2024/04/16 09:56:38;;;;;;;6.53;1.67;;;10.60;97.30;;;;;;5434479;26;20007;-70
2024/04/16 09:59:07;;;;;;;6.47;1.30;;;10.70;97.80;;;;;;5436942;26;19999;-70
2024/04/16 10:01:33;;;;;;;5.57;1.30;;;10.70;96.70;;;;;;5437166;26;20002;-69
2024/04/16 10:04:00;;;;;;;26.63;11.77;;;10.90;97.80;;;;;;5439187;26;19995;-69
2024/04/16 10:06:26;;;;;;;29.02;14.90;;;11.00;96.90;;;;;;5435154;26;19999;-69
2024/04/16 10:08:54;;;;;;;52.22;26.20;;;11.20;98.40;;;;;;5437635;26;20870;-69
2024/04/16 10:11:21;;;;;;;31.08;18.17;;;11.50;97.30;;;;;;5434488;26;20009;-69
2024/04/16 10:13:47;;;;;;;9.45;3.83;;;11.70;96.30;;;;;;5439148;26;20010;-69
2024/04/16 10:16:15;;;;;;;14.40;8.90;;;11.60;96.20;;;;;;5437330;26;19999;-69
2024/04/16 10:18:42;;;;;;;11.27;6.05;;;11.70;96.00;;;;;;5433663;26;20007;-68
2024/04/16 10:21:10;;;;;;;8.93;4.10;;;11.70;95.40;;;;;;5434709;26;19999;-70
2024/04/16 10:23:39;;;;;;;4.57;2.90;;;11.50;95.00;;;;;;5437875;26;19999;-70
2024/04/16 10:26:05;;;;;;;7.20;3.00;;;11.40;94.20;;;;;;5435721;26;20014;-70
2024/04/16 10:28:33;;;;;;;6.03;2.55;;;11.50;94.70;;;;;;5438116;26;20438;-70
2024/04/16 10:31:00;;;;;;;5.97;2.55;;;11.30;94.70;;;;;;5437514;26;20007;-69
2024/04/16 10:33:27;;;;;;;9.95;3.97;;;11.30;95.90;;;;;;5438649;26;20795;-68
2024/04/16 10:35:54;;;;;;;7.20;3.05;;;11.30;95.70;;;;;;5437764;26;20034;-69
2024/04/16 10:38:20;;;;;;;7.47;2.58;;;11.20;96.30;;;;;;5438934;26;20009;-71
2024/04/16 10:40:56;;;;;;;8.43;4.15;;;11.10;95.40;;;;;;5435402;26;20017;-69
2024/04/16 10:43:25;;;;;;;;;;;11.20;96.70;;;;;;5438325;26;20047;-69
2024/04/16 10:45:52;;;;;;;4.43;1.70;;;11.30;97.20;;;;;;5437531;26;19931;-70
2024/04/16 10:48:18;;;;;;;5.57;1.10;;;11.30;96.30;;;;;;5431373;26;20003;-70
2024/04/16 10:50:48;;;;;;;3.50;1.05;;;11.50;97.10;;;;;;5432439;26;20350;-70
2024/04/16 10:53:17;;;;;;;4.35;1.23;;;11.50;97.30;;;;;;5435662;26;20083;-70
2024/04/16 10:55:43;;;;;;;9.18;3.38;;;11.60;96.90;;;;;;5431868;26;21196;-74
2024/04/16 10:58:10;;;;;;;8.57;4.95;;;11.70;97.10;;;;;;5436120;26;19999;-79
2024/04/16 11:00:36;;;;;;;4.70;1.95;;;11.80;96.20;;;;;;5437484;26;20029;-71
2024/04/16 11:03:02;;;;;;;11.23;4.75;;;11.80;95.80;;;;;;5434907;26;20410;-70
2024/04/16 11:05:29;;;;;;;8.38;3.80;;;11.90;95.60;;;;;;5435572;26;20014;-70
2024/04/16 11:07:54;;;;;;;8.88;3.88;;;11.90;96.50;;;;;;5435984;26;20014;-69
2024/04/16 11:10:20;;;;;;;7.80;1.95;;;11.90;96.30;;;;;;5437752;26;20011;-69
2024/04/16 11:12:46;;;;;;;6.38;3.10;;;11.60;95.50;;;;;;5437018;26;20616;-69
2024/04/16 11:15:12;;;;;;;3.28;1.52;;;11.60;95.80;;;;;;5437892;26;20352;-70
2024/04/16 11:17:41;;;;;;;3.60;1.50;;;11.60;95.90;;;;;;5436847;26;20083;-70
2024/04/16 11:20:08;;;;;;;3.83;1.67;;;11.80;96.30;;;;;;5435972;26;20014;-70
2024/04/16 11:22:34;;;;;;;1.95;1.58;;;11.80;95.10;;;;;;5436483;26;20163;-70
2024/04/16 11:25:00;;;;;;;1.58;0.98;;;11.80;94.80;;;;;;5437655;26;20022;-70
2024/04/16 11:27:28;;;;;;;3.28;1.30;;;12.00;95.60;;;;;;5436106;26;20087;-70
2024/04/16 11:29:53;;;;;;;4.00;1.40;;;12.20;94.70;;;;;;5432157;26;20003;-70
2024/04/16 11:32:20;;;;;;;2.25;0.73;;;12.40;94.80;;;;;;5436234;26;21099;-70
2024/04/16 11:34:46;;;;;;;2.15;1.20;;;12.70;95.00;;;;;;5436785;26;19998;-67
2024/04/16 11:37:15;;;;;;;3.45;1.02;;;12.90;93.70;;;;;;5432407;26;20010;-66
2024/04/16 11:39:43;;;;;;;5.88;0.98;;;13.10;93.30;;;;;;5432642;26;19990;-66
2024/04/16 11:42:11;;;;;;;1.70;0.77;;;13.20;92.80;;;;;;5430204;26;20006;-67
2024/04/16 11:44:41;;;;;;;2.30;0.80;;;13.20;92.20;;;;;;5434570;26;19999;-67
2024/04/16 11:47:10;;;;;;;3.00;1.25;;;13.20;92.60;;;;;;5430282;26;20482;-67
2024/04/16 11:49:37;;;;;;;1.38;0.70;;;13.00;92.40;;;;;;5433088;26;20003;-66
2024/04/16 11:52:06;;;;;;;3.45;0.85;;;12.80;92.50;;;;;;5433086;26;20003;-66
2024/04/16 11:54:34;;;;;;;1.00;0.55;;;12.70;92.30;;;;;;5434058;26;20013;-67
2024/04/16 11:57:02;;;;;;;1.98;0.82;;;12.50;92.00;;;;;;5429723;26;20028;-66
2024/04/16 11:59:28;;;;;;;1.17;0.77;;;12.30;92.80;;;;;;5434944;26;20002;-66
2024/04/16 12:01:54;;;;;;;2.17;0.80;;;12.10;93.50;;;;;;5432908;26;20331;-66
2024/04/16 12:04:20;;;;;;;1.70;0.98;;;12.00;94.60;;;;;;5434601;26;20002;-66
2024/04/16 12:06:45;;;;;;;2.63;0.60;;;11.80;94.00;;;;;;5432434;26;19998;-65
2024/04/16 12:09:11;;;;;;;5.43;0.82;;;11.70;94.40;;;;;;5436172;26;20467;-66
2024/04/16 12:11:37;;;;;;;2.60;0.93;;;11.60;95.40;;;;;;5431198;26;20679;-66
2024/04/16 12:14:03;;;;;;;1.40;0.50;;;11.50;95.60;;;;;;5434664;26;20055;-66
2024/04/16 12:16:30;;;;;;;3.28;1.42;;;11.60;95.50;;;;;;5433264;26;20783;-66
2024/04/16 12:18:56;;;;;;;1.55;0.77;;;11.50;95.50;;;;;;5428895;26;19995;-66
2024/04/16 12:21:22;;;;;;;2.47;0.90;;;11.50;95.70;;;;;;5432586;26;20005;-66
2024/04/16 12:23:50;;;;;;;3.03;0.80;;;11.60;96.20;;;;;;5432425;26;20003;-67
2024/04/16 12:26:16;;;;;;;2.38;0.90;;;11.70;96.40;;;;;;5432566;26;20003;-66
2024/04/16 12:28:44;;;;;;;1.95;0.80;;;11.90;96.40;;;;;;5434491;26;20649;-66
2024/04/16 12:31:10;;;;;;;1.98;0.68;;;12.10;96.20;;;;;;5432001;26;20316;-66
2024/04/16 12:33:36;;;;;;;1.98;0.90;;;12.00;95.40;;;;;;5434526;26;19995;-67
2024/04/16 12:36:02;;;;;;;3.20;1.00;;;11.90;95.00;;;;;;5431989;26;20003;-67
2024/04/16 12:38:29;;;;;;;1.20;0.55;;;11.90;94.00;;;;;;5437490;26;20530;-67
2024/04/16 12:40:55;;;;;;;1.90;0.70;;;12.00;94.50;;;;;;5433053;26;19991;-67
2024/04/16 12:43:21;;;;;;;2.88;0.80;;;12.20;94.30;;;;;;5433479;26;20458;-67
2024/04/16 12:45:48;;;;;;;2.42;0.90;;;12.30;94.80;;;;;;5435432;26;20158;-67
2024/04/16 12:48:19;;;;;;;2.00;0.82;;;12.40;93.30;;;;;;5434876;26;20014;-67